< < Back
Terminal Aerodrome Forecast


Current Version              Previous Versions:   1  2  3  4  5  6  7  8  9  

Terminal Aerodrome Forecast

315
FTUS44 KBMX 190500
TAFMGM
TAF
KMGM 190523Z 1906/2006 VRB02KT P6SM BKN250
     FM191800 11006KT P6SM SCT250=



Latest METAR

846
SAUS80 KWBC 190600
MTRMGM
METAR KMGM 190553Z AUTO 00000KT 10SM CLR 22/18 A2998 RMK AO2 SLP148
T02220183 10278 20206 403330183 53004


USA.gov is the U.S. government's official web portal to all federal, state and local government web resources and services.